Time;durP1;ratioP1;P1;durP2;ratioP2;P2;SDS_P1;SDS_P2;PMS_P1;PMS_P2;Temp;Humidity;BMP_temperature;BMP_pressure;BME280_temperature;BME280_humidity;BME280_pressure;Samples;Min_cycle;Max_cycle;Signal;HPM_P1;HPM_P2
2023/08/10 00:04:16;;;;;;;25.60;6.03;;;;;;;;;;20923055;28;20045;-64
2023/08/10 00:14:17;;;;;;;20.52;5.13;;;;;;;;;;20922091;28;20061;-64
2023/08/10 00:24:18;;;;;;;18.60;4.93;;;;;;;;;;20919970;28;20128;-63
2023/08/10 00:34:19;;;;;;;21.80;6.25;;;;;;;;;;20919661;28;20055;-64
2023/08/10 00:44:20;;;;;;;18.20;4.35;;;;;;;;;;20919537;28;20052;-64
2023/08/10 00:54:21;;;;;;;19.45;4.53;;;;;;;;;;20919160;28;20395;-63
2023/08/10 01:04:22;;;;;;;17.23;4.40;;;;;;;;;;20918103;28;20047;-63
2023/08/10 01:14:31;;;;;;;16.02;4.63;;;;;;;;;;20916468;28;20061;-63
2023/08/10 01:24:33;;;;;;;21.70;4.78;;;;;;;;;;20916581;28;20399;-63
2023/08/10 01:34:34;;;;;;;20.98;5.00;;;;;;;;;;20914713;28;20059;-63
2023/08/10 01:44:36;;;;;;;18.17;4.40;;;;;;;;;;20916010;28;20490;-63
2023/08/10 01:54:38;;;;;;;14.57;4.38;;;;;;;;;;20913535;28;20049;-64
2023/08/10 02:04:39;;;;;;;20.75;4.60;;;;;;;;;;20914124;28;20041;-63
2023/08/10 02:14:40;;;;;;;15.95;4.78;;;;;;;;;;20912479;28;20049;-64
2023/08/10 02:24:41;;;;;;;15.98;4.80;;;;;;;;;;20913383;28;20045;-62
2023/08/10 02:34:43;;;;;;;17.48;4.15;;;;;;;;;;20911673;28;20044;-62
2023/08/10 02:44:44;;;;;;;15.85;3.88;;;;;;;;;;20911166;28;20037;-63
2023/08/10 02:54:45;;;;;;;12.98;4.10;;;;;;;;;;20918237;28;20048;-64
2023/08/10 03:04:47;;;;;;;19.00;4.10;;;;;;;;;;20927654;28;20049;-64
2023/08/10 03:14:48;;;;;;;17.60;4.20;;;;;;;;;;20927363;28;20490;-63
2023/08/10 03:24:49;;;;;;;13.35;3.65;;;;;;;;;;20924449;28;20133;-62
2023/08/10 03:34:51;;;;;;;14.70;3.35;;;;;;;;;;20924017;28;20049;-63
2023/08/10 03:44:54;;;;;;;14.55;3.65;;;;;;;;;;20924336;28;20482;-63
2023/08/10 03:54:56;;;;;;;12.27;3.28;;;;;;;;;;20923467;28;20056;-63
2023/08/10 04:04:57;;;;;;;8.30;2.80;;;;;;;;;;20921448;28;20118;-63
2023/08/10 04:14:58;;;;;;;13.45;3.30;;;;;;;;;;20920977;28;20076;-63
2023/08/10 04:25:01;;;;;;;9.73;2.88;;;;;;;;;;20921040;28;20106;-63
2023/08/10 04:35:02;;;;;;;13.15;3.78;;;;;;;;;;20920210;28;20045;-62
2023/08/10 04:45:04;;;;;;;8.25;3.40;;;;;;;;;;20919318;28;20048;-62
2023/08/10 04:55:06;;;;;;;8.35;2.45;;;;;;;;;;20919018;28;20049;-64
2023/08/10 05:05:09;;;;;;;8.70;3.22;;;;;;;;;;20916603;28;20041;-63
2023/08/10 05:15:10;;;;;;;8.10;3.00;;;;;;;;;;20915590;28;20128;-63
2023/08/10 05:25:12;;;;;;;8.43;2.63;;;;;;;;;;20916744;28;20068;-62
2023/08/10 05:35:14;;;;;;;10.07;2.75;;;;;;;;;;20915846;28;20045;-63
2023/08/10 05:45:19;;;;;;;7.75;2.53;;;;;;;;;;20913167;28;20091;-63
2023/08/10 05:55:20;;;;;;;7.13;2.47;;;;;;;;;;20913878;28;20072;-63
2023/08/10 06:05:22;;;;;;;11.18;2.90;;;;;;;;;;20913550;28;20048;-63
2023/08/10 06:15:24;;;;;;;9.45;2.58;;;;;;;;;;20912053;28;20060;-63
2023/08/10 06:25:25;;;;;;;8.13;2.58;;;;;;;;;;20913155;28;20060;-63
2023/08/10 06:35:27;;;;;;;6.80;3.10;;;;;;;;;;20927197;28;20103;-63
2023/08/10 06:45:28;;;;;;;11.05;3.15;;;;;;;;;;20927622;28;20081;-63
2023/08/10 06:55:30;;;;;;;8.98;3.00;;;;;;;;;;20927685;28;20037;-64
2023/08/10 07:05:31;;;;;;;7.78;2.72;;;;;;;;;;20926941;28;20398;-64
2023/08/10 07:15:32;;;;;;;11.73;2.83;;;;;;;;;;20926676;28;20498;-63
2023/08/10 07:25:33;;;;;;;7.63;2.78;;;;;;;;;;20925959;28;20132;-63
2023/08/10 07:35:35;;;;;;;7.85;2.88;;;;;;;;;;20924057;28;20045;-64
2023/08/10 07:45:36;;;;;;;12.48;2.78;;;;;;;;;;20924204;28;20048;-63
2023/08/10 07:55:37;;;;;;;9.75;3.38;;;;;;;;;;20923539;28;20055;-64
2023/08/10 08:05:40;;;;;;;16.98;3.88;;;;;;;;;;20923203;28;20041;-64
2023/08/10 08:15:43;;;;;;;10.90;3.20;;;;;;;;;;20921418;28;20084;-65
2023/08/10 08:25:44;;;;;;;7.45;3.05;;;;;;;;;;20921677;28;20091;-64
2023/08/10 08:35:46;;;;;;;9.95;3.08;;;;;;;;;;20919658;28;20131;-64
2023/08/10 08:45:47;;;;;;;11.63;4.78;;;;;;;;;;20920480;28;20060;-64
2023/08/10 08:55:48;;;;;;;10.80;2.83;;;;;;;;;;20917752;28;20045;-64
2023/08/10 09:05:50;;;;;;;12.27;2.80;;;;;;;;;;20918630;28;20080;-63
2023/08/10 09:16:27;;;;;;;8.10;2.75;;;;;;;;;;20917105;28;20053;-64
2023/08/10 09:26:28;;;;;;;9.80;2.80;;;;;;;;;;20938349;28;20124;-64
2023/08/10 09:36:29;;;;;;;6.75;2.50;;;;;;;;;;20916603;28;20056;-65
2023/08/10 09:46:30;;;;;;;11.25;3.00;;;;;;;;;;20914712;28;20040;-65
2023/08/10 09:56:32;;;;;;;8.60;2.25;;;;;;;;;;20914702;28;20056;-65
2023/08/10 10:06:33;;;;;;;5.97;2.38;;;;;;;;;;20911780;28;20228;-65
2023/08/10 10:16:35;;;;;;;5.05;2.03;;;;;;;;;;20912441;28;20053;-65
2023/08/10 10:26:38;;;;;;;5.63;2.33;;;;;;;;;;20912670;28;20128;-64
2023/08/10 10:36:40;;;;;;;8.13;2.60;;;;;;;;;;20912495;28;20049;-65
2023/08/10 10:46:41;;;;;;;9.85;3.20;;;;;;;;;;20911942;28;20041;-64
2023/08/10 10:56:43;;;;;;;5.25;1.95;;;;;;;;;;20911635;28;20049;-64
2023/08/10 11:06:44;;;;;;;5.35;2.47;;;;;;;;;;20910260;28;20041;-65
2023/08/10 11:16:48;;;;;;;5.82;2.78;;;;;;;;;;20916573;28;20133;-65
2023/08/10 11:26:50;;;;;;;6.03;1.83;;;;;;;;;;20925629;28;20052;-64
2023/08/10 11:36:52;;;;;;;5.90;2.10;;;;;;;;;;20925896;28;20406;-65
2023/08/10 11:46:57;;;;;;;7.05;2.65;;;;;;;;;;20924455;28;20077;-65
2023/08/10 11:57:08;;;;;;;4.72;2.22;;;;;;;;;;20924171;28;20045;-64
2023/08/10 12:07:09;;;;;;;8.35;2.47;;;;;;;;;;20923307;28;20398;-65
2023/08/10 12:17:10;;;;;;;6.03;2.35;;;;;;;;;;20921039;28;20061;-64
2023/08/10 12:27:11;;;;;;;4.60;2.10;;;;;;;;;;20919540;28;20045;-64
2023/08/10 12:37:12;;;;;;;4.78;2.28;;;;;;;;;;20921132;28;20051;-64
2023/08/10 12:47:13;;;;;;;5.63;2.60;;;;;;;;;;20919466;28;20049;-65
2023/08/10 12:57:14;;;;;;;3.60;2.28;;;;;;;;;;20919159;28;20398;-64
2023/08/10 13:07:16;;;;;;;4.95;2.35;;;;;;;;;;20917260;28;20055;-64
2023/08/10 13:17:18;;;;;;;6.22;2.03;;;;;;;;;;20916421;28;20547;-65
2023/08/10 13:27:19;;;;;;;5.82;2.33;;;;;;;;;;20917229;28;20080;-64
2023/08/10 13:37:20;;;;;;;4.25;1.90;;;;;;;;;;20915868;28;20048;-64
2023/08/10 13:47:22;;;;;;;5.72;2.05;;;;;;;;;;20914588;28;20094;-64
2023/08/10 13:57:23;;;;;;;8.07;1.90;;;;;;;;;;20915081;28;20049;-64
2023/08/10 14:07:24;;;;;;;7.13;2.70;;;;;;;;;;20913994;28;20041;-66
2023/08/10 14:17:25;;;;;;;3.90;1.85;;;;;;;;;;20914453;28;20157;-65
2023/08/10 14:27:26;;;;;;;5.15;2.20;;;;;;;;;;20913183;28;20109;-66
2023/08/10 14:37:27;;;;;;;5.75;2.03;;;;;;;;;;20912916;28;20041;-65
2023/08/10 14:47:28;;;;;;;4.38;2.15;;;;;;;;;;20913595;28;20043;-65
2023/08/10 14:57:29;;;;;;;4.03;1.77;;;;;;;;;;20929054;28;20390;-65
2023/08/10 15:07:30;;;;;;;3.15;1.50;;;;;;;;;;20926655;28;20044;-63
2023/08/10 15:17:31;;;;;;;5.15;1.92;;;;;;;;;;20926029;28;20060;-64
2023/08/10 15:27:33;;;;;;;2.17;1.48;;;;;;;;;;20926625;28;20071;-63
2023/08/10 15:37:34;;;;;;;2.63;1.17;;;;;;;;;;20924472;28;20045;-63
2023/08/10 15:47:35;;;;;;;2.72;1.23;;;;;;;;;;20923929;28;20041;-64
2023/08/10 15:57:36;;;;;;;1.55;1.27;;;;;;;;;;20924758;28;20533;-64
2023/08/10 16:07:37;;;;;;;2.83;1.38;;;;;;;;;;20923417;28;20564;-62
2023/08/10 16:17:39;;;;;;;2.58;1.48;;;;;;;;;;20921250;28;20057;-63
2023/08/10 16:27:40;;;;;;;2.97;1.48;;;;;;;;;;20921909;28;20061;-64
2023/08/10 16:37:41;;;;;;;3.65;1.20;;;;;;;;;;20921677;28;20091;-62
2023/08/10 16:47:42;;;;;;;2.83;1.35;;;;;;;;;;20920637;28;20063;-63
2023/08/10 16:57:43;;;;;;;2.60;1.55;;;;;;;;;;20919662;28;20513;-63
2023/08/10 17:07:44;;;;;;;4.18;1.13;;;;;;;;;;20918955;28;20124;-63
2023/08/10 17:17:46;;;;;;;3.83;1.20;;;;;;;;;;20917278;28;20053;-63
2023/08/10 17:27:47;;;;;;;3.40;1.27;;;;;;;;;;20915794;28;20045;-63
2023/08/10 17:37:48;;;;;;;1.92;1.10;;;;;;;;;;20915012;28;20045;-64
2023/08/10 17:47:49;;;;;;;3.38;1.20;;;;;;;;;;20915548;28;20076;-63
2023/08/10 17:57:50;;;;;;;2.92;1.20;;;;;;;;;;20914881;28;20041;-63
2023/08/10 18:07:51;;;;;;;2.25;0.90;;;;;;;;;;20913076;28;20052;-62
2023/08/10 18:17:52;;;;;;;3.20;1.00;;;;;;;;;;20912772;28;20056;-63
2023/08/10 18:27:53;;;;;;;2.20;0.90;;;;;;;;;;20912779;28;20478;-62
2023/08/10 18:37:54;;;;;;;1.60;0.93;;;;;;;;;;20913429;28;20547;-64
2023/08/10 18:47:55;;;;;;;4.25;1.10;;;;;;;;;;20912770;28;20049;-63
2023/08/10 18:57:57;;;;;;;3.67;1.10;;;;;;;;;;20912420;28;20045;-63
2023/08/10 19:07:58;;;;;;;3.58;0.85;;;;;;;;;;20911494;28;20525;-63
2023/08/10 19:17:59;;;;;;;2.80;1.00;;;;;;;;;;20910066;28;20057;-63
2023/08/10 19:28:00;;;;;;;1.95;0.90;;;;;;;;;;20910999;28;20405;-63
2023/08/10 19:38:02;;;;;;;5.55;1.70;;;;;;;;;;20918574;28;20509;-63
2023/08/10 19:48:04;;;;;;;3.63;1.50;;;;;;;;;;20925302;28;20455;-63
2023/08/10 19:58:05;;;;;;;3.92;1.40;;;;;;;;;;20923744;28;20056;-62
2023/08/10 20:08:06;;;;;;;2.38;1.50;;;;;;;;;;20923312;28;20044;-62
2023/08/10 20:18:07;;;;;;;6.18;1.85;;;;;;;;;;20921434;28;20515;-62
2023/08/10 20:28:08;;;;;;;5.18;1.85;;;;;;;;;;20921943;28;20049;-63
2023/08/10 20:38:09;;;;;;;2.83;1.60;;;;;;;;;;20921578;28;20052;-63
2023/08/10 20:48:11;;;;;;;3.78;1.77;;;;;;;;;;20919457;28;20457;-62
2023/08/10 20:58:12;;;;;;;3.67;1.92;;;;;;;;;;20919958;28;20048;-63
2023/08/10 21:08:13;;;;;;;1.90;1.45;;;;;;;;;;20919103;28;20045;-63
2023/08/10 21:18:14;;;;;;;6.00;2.05;;;;;;;;;;20916997;28;20049;-63
2023/08/10 21:28:16;;;;;;;8.82;2.20;;;;;;;;;;20917292;28;20060;-62
2023/08/10 21:38:17;;;;;;;5.07;2.53;;;;;;;;;;20916680;28;20037;-62
2023/08/10 21:48:18;;;;;;;6.40;2.65;;;;;;;;;;20915883;28;20114;-63
2023/08/10 21:58:19;;;;;;;4.32;2.35;;;;;;;;;;20914918;28;20162;-62
2023/08/10 22:08:20;;;;;;;9.02;2.90;;;;;;;;;;20914764;28;20081;-63
2023/08/10 22:18:21;;;;;;;5.75;3.83;;;;;;;;;;20912585;28;20051;-63
2023/08/10 22:28:22;;;;;;;6.10;3.10;;;;;;;;;;20913468;28;20132;-62
2023/08/10 22:38:25;;;;;;;7.22;2.25;;;;;;;;;;20913287;28;20123;-62
2023/08/10 22:48:26;;;;;;;11.15;4.60;;;;;;;;;;20912542;28;20474;-61
2023/08/10 22:58:27;;;;;;;6.75;3.15;;;;;;;;;;20912376;28;20564;-63
2023/08/10 23:08:28;;;;;;;7.03;2.63;;;;;;;;;;20913297;28;20637;-63
2023/08/10 23:18:30;;;;;;;4.38;2.10;;;;;;;;;;20926480;28;20076;-63
2023/08/10 23:28:31;;;;;;;8.45;2.60;;;;;;;;;;20926723;28;20060;-63
2023/08/10 23:38:34;;;;;;;14.40;5.40;;;;;;;;;;20926103;28;20406;-62
2023/08/10 23:48:35;;;;;;;5.22;2.28;;;;;;;;;;20925444;28;20501;-62
2023/08/10 23:58:36;;;;;;;4.97;2.58;;;;;;;;;;20923314;28;20048;-63
